DAL981 KATL-SKBO
Flight info
| Callsign | DAL981 |
|---|---|
| Flight time | N/A |
| Altitude | 37000 |
| Route | VRSTY3 NOKIE DCT YANTI Q89 SHRKS DCT DEBRL Q97 TOVAR Y297 URSUS UP406 UBSUX/N0473F390 UP406 AKPEK UQ121 ISVAT ISVAT5E |
| Aircraft | A346/H-SDE2E3FGHIJ3J4J5M1RWXY/LB1D1 |
Departure
| Time | 2026-05-01 12:59 |
|---|---|
| Airport | Hartsfield Jackson Atlanta International Airport (KATL) |
Arrival
| Time | N/A |
|---|---|
| Airport | El Dorado International Airport (SKBO) |
| Time | Latitude | Longitude | Altitude | Speed | Heading |
|---|---|---|---|---|---|
| 2026-05-01 12:23 | 33.64187 | -84.42652 | 1015 ft | 0 kts | 90° |
| 2026-05-01 12:46 | 33.64187 | -84.42667 | 1015 ft | 4 kts | 87° |
| 2026-05-01 12:47 | 33.64186 | -84.42696 | 1015 ft | 4 kts | 97° |
| 2026-05-01 12:47 | 33.64191 | -84.42710 | 1015 ft | 4 kts | 128° |
| 2026-05-01 12:47 | 33.64208 | -84.42727 | 1015 ft | 4 kts | 156° |
| 2026-05-01 12:47 | 33.64231 | -84.42733 | 1015 ft | 4 kts | 179° |
| 2026-05-01 12:48 | 33.64254 | -84.42733 | 1015 ft | 1 kts | 179° |
| 2026-05-01 12:48 | 33.64258 | -84.42733 | 1015 ft | 0 kts | 179° |
| 2026-05-01 12:50 | 33.64253 | -84.42733 | 1015 ft | 2 kts | 179° |
| 2026-05-01 12:50 | 33.64234 | -84.42733 | 1015 ft | 4 kts | 179° |
| 2026-05-01 12:50 | 33.64200 | -84.42733 | 1015 ft | 6 kts | 179° |
| 2026-05-01 12:50 | 33.64152 | -84.42732 | 1015 ft | 8 kts | 179° |
| 2026-05-01 12:51 | 33.64089 | -84.42732 | 1015 ft | 10 kts | 179° |
| 2026-05-01 12:51 | 33.64009 | -84.42731 | 1015 ft | 13 kts | 179° |
| 2026-05-01 12:51 | 33.63811 | -84.42732 | 1015 ft | 16 kts | 180° |
| 2026-05-01 12:52 | 33.63725 | -84.42733 | 1015 ft | 10 kts | 185° |
| 2026-05-01 12:52 | 33.63664 | -84.42892 | 1014 ft | 14 kts | 269° |
| 2026-05-01 12:52 | 33.63663 | -84.43013 | 1014 ft | 15 kts | 269° |
| 2026-05-01 12:53 | 33.63661 | -84.43290 | 1014 ft | 19 kts | 269° |
| 2026-05-01 12:53 | 33.63662 | -84.43455 | 1014 ft | 21 kts | 271° |
| 2026-05-01 12:53 | 33.63663 | -84.43636 | 1015 ft | 22 kts | 270° |
| 2026-05-01 12:54 | 33.63664 | -84.43827 | 1015 ft | 23 kts | 270° |
| 2026-05-01 12:54 | 33.63663 | -84.44226 | 1015 ft | 23 kts | 270° |
| 2026-05-01 12:54 | 33.63663 | -84.44404 | 1015 ft | 20 kts | 270° |
| 2026-05-01 12:55 | 33.63661 | -84.44673 | 1015 ft | 10 kts | 258° |
| 2026-05-01 12:55 | 33.63637 | -84.44714 | 1014 ft | 2 kts | 213° |
| 2026-05-01 12:55 | 33.63626 | -84.44724 | 1014 ft | 3 kts | 219° |
| 2026-05-01 12:56 | 33.63600 | -84.44749 | 1014 ft | 6 kts | 217° |
| 2026-05-01 12:56 | 33.63552 | -84.44773 | 1014 ft | 9 kts | 191° |
| 2026-05-01 12:56 | 33.63495 | -84.44770 | 1014 ft | 7 kts | 153° |
| 2026-05-01 12:56 | 33.63475 | -84.44725 | 1014 ft | 5 kts | 98° |
| 2026-05-01 12:57 | 33.63473 | -84.44701 | 1014 ft | 0 kts | 92° |
| 2026-05-01 12:57 | 33.63472 | -84.44447 | 1016 ft | 61 kts | 89° |
| 2026-05-01 12:57 | 33.63472 | -84.43688 | 1014 ft | 118 kts | 90° |
| 2026-05-01 12:58 | 33.63474 | -84.42490 | 1016 ft | 166 kts | 90° |
| 2026-05-01 12:58 | 33.63472 | -84.40935 | 1050 ft | 202 kts | 90° |
| 2026-05-01 12:58 | 33.63400 | -84.39191 | 1582 ft | 208 kts | 98° |
| 2026-05-01 12:59 | 33.62583 | -84.35931 | 3140 ft | 201 kts | 108° |
| 2026-05-01 12:59 | 33.62135 | -84.34316 | 3623 ft | 207 kts | 108° |
| 2026-05-01 12:59 | 33.61263 | -84.30858 | 4525 ft | 226 kts | 106° |
| 2026-05-01 13:00 | 33.59902 | -84.27334 | 5333 ft | 247 kts | 139° |
| 2026-05-01 13:00 | 33.58395 | -84.26250 | 5631 ft | 262 kts | 166° |
| 2026-05-01 13:01 | 33.54719 | -84.26669 | 6707 ft | 276 kts | 200° |
| 2026-05-01 13:01 | 33.52849 | -84.27219 | 7528 ft | 278 kts | 193° |
| 2026-05-01 13:01 | 33.48946 | -84.27605 | 9189 ft | 285 kts | 186° |
| 2026-05-01 13:02 | 33.46948 | -84.27616 | 10014 ft | 290 kts | 183° |
| 2026-05-01 13:07 | 32.96790 | -83.87753 | 21018 ft | 480 kts | 153° |
| 2026-05-01 13:07 | 32.94041 | -83.85459 | 21605 ft | 483 kts | 153° |
| 2026-05-01 13:07 | 32.91278 | -83.83156 | 22127 ft | 486 kts | 154° |
| 2026-05-01 13:08 | 32.88532 | -83.80868 | 22635 ft | 490 kts | 154° |
| 2026-05-01 13:08 | 32.85725 | -83.78529 | 23149 ft | 493 kts | 154° |
| 2026-05-01 13:08 | 32.82891 | -83.76169 | 23617 ft | 497 kts | 154° |
| 2026-05-01 13:08 | 32.80049 | -83.73804 | 23987 ft | 500 kts | 154° |
| 2026-05-01 13:09 | 32.77196 | -83.71432 | 24352 ft | 503 kts | 154° |
| 2026-05-01 13:09 | 32.74311 | -83.69034 | 24726 ft | 506 kts | 154° |
| 2026-05-01 13:09 | 32.71407 | -83.66626 | 25069 ft | 509 kts | 153° |
| 2026-05-01 13:09 | 32.68499 | -83.64211 | 25542 ft | 511 kts | 153° |
| 2026-05-01 13:10 | 32.65620 | -83.61717 | 25980 ft | 514 kts | 152° |
| 2026-05-01 13:10 | 32.62736 | -83.59160 | 26375 ft | 519 kts | 151° |
| 2026-05-01 13:10 | 32.59873 | -83.56612 | 26746 ft | 522 kts | 151° |
| 2026-05-01 13:10 | 32.56960 | -83.54021 | 27131 ft | 526 kts | 151° |
| 2026-05-01 13:11 | 32.54009 | -83.51406 | 27508 ft | 530 kts | 151° |
| 2026-05-01 13:11 | 32.51030 | -83.48775 | 27871 ft | 534 kts | 151° |
| 2026-05-01 13:11 | 32.48049 | -83.46146 | 28414 ft | 534 kts | 152° |
| 2026-05-01 13:11 | 32.45074 | -83.43523 | 29015 ft | 532 kts | 152° |
| 2026-05-01 13:12 | 32.42105 | -83.40915 | 29607 ft | 530 kts | 151° |
| 2026-05-01 13:12 | 32.39152 | -83.38319 | 30242 ft | 527 kts | 151° |
| 2026-05-01 13:12 | 32.36208 | -83.35734 | 30747 ft | 526 kts | 151° |
| 2026-05-01 13:12 | 32.33264 | -83.33153 | 31222 ft | 527 kts | 152° |
| 2026-05-01 13:13 | 32.30314 | -83.30570 | 31647 ft | 528 kts | 152° |
| 2026-05-01 13:13 | 32.27364 | -83.27989 | 32074 ft | 528 kts | 152° |
| 2026-05-01 13:13 | 32.24399 | -83.25397 | 32513 ft | 529 kts | 152° |
| 2026-05-01 13:13 | 32.21447 | -83.22817 | 32946 ft | 529 kts | 152° |
| 2026-05-01 13:14 | 32.18479 | -83.20226 | 33380 ft | 529 kts | 152° |
| 2026-05-01 13:14 | 32.15517 | -83.17643 | 33749 ft | 529 kts | 152° |
| 2026-05-01 13:14 | 32.12556 | -83.15066 | 34185 ft | 528 kts | 152° |
| 2026-05-01 13:14 | 32.09597 | -83.12488 | 34590 ft | 527 kts | 152° |
| 2026-05-01 13:15 | 32.06648 | -83.09920 | 34949 ft | 527 kts | 152° |
| 2026-05-01 13:15 | 32.04699 | -83.08224 | 35174 ft | 527 kts | 152° |
| 2026-05-01 13:15 | 32.01747 | -83.05658 | 35466 ft | 527 kts | 152° |
| 2026-05-01 13:15 | 31.98793 | -83.03094 | 35732 ft | 529 kts | 152° |
| 2026-05-01 13:16 | 31.95822 | -83.00519 | 35970 ft | 531 kts | 152° |
| 2026-05-01 13:16 | 31.92840 | -82.97934 | 36203 ft | 532 kts | 152° |
| 2026-05-01 13:16 | 31.89852 | -82.95345 | 36449 ft | 534 kts | 152° |
| 2026-05-01 13:17 | 31.80845 | -82.87557 | 36975 ft | 537 kts | 152° |
| 2026-05-01 13:17 | 31.77859 | -82.84895 | 36977 ft | 540 kts | 149° |
| 2026-05-01 13:18 | 31.69106 | -82.76588 | 36974 ft | 541 kts | 148° |
| 2026-05-01 13:18 | 31.63242 | -82.71012 | 36975 ft | 542 kts | 148° |
| 2026-05-01 13:19 | 31.57377 | -82.65453 | 36951 ft | 541 kts | 148° |
| 2026-05-01 13:20 | 31.48593 | -82.57149 | 36993 ft | 540 kts | 148° |
| 2026-05-01 13:20 | 31.42737 | -82.51623 | 36984 ft | 540 kts | 148° |
| 2026-05-01 13:21 | 31.33941 | -82.43344 | 37003 ft | 540 kts | 148° |
| 2026-05-01 13:21 | 31.28121 | -82.37881 | 36954 ft | 538 kts | 148° |
| 2026-05-01 13:22 | 31.22289 | -82.32413 | 36994 ft | 536 kts | 148° |
| 2026-05-01 13:22 | 31.16459 | -82.26950 | 37003 ft | 536 kts | 148° |
| 2026-05-01 13:23 | 31.10644 | -82.21511 | 37007 ft | 536 kts | 148° |
| 2026-05-01 13:23 | 31.04817 | -82.16073 | 37028 ft | 536 kts | 148° |
| 2026-05-01 13:24 | 30.99000 | -82.10652 | 37012 ft | 535 kts | 148° |
| 2026-05-01 13:25 | 30.90288 | -82.02549 | 37021 ft | 533 kts | 148° |
| 2026-05-01 13:25 | 30.84486 | -81.97163 | 37025 ft | 533 kts | 148° |
| 2026-05-01 13:26 | 30.78685 | -81.91786 | 36993 ft | 533 kts | 148° |
| 2026-05-01 13:26 | 30.72914 | -81.86444 | 36986 ft | 533 kts | 148° |
| 2026-05-01 13:27 | 30.67092 | -81.81133 | 36986 ft | 528 kts | 150° |
| 2026-05-01 13:27 | 30.57795 | -81.74552 | 36964 ft | 515 kts | 161° |
| 2026-05-01 13:28 | 30.47937 | -81.69687 | 36965 ft | 511 kts | 165° |
| 2026-05-01 13:29 | 30.34760 | -81.63388 | 36959 ft | 513 kts | 165° |
| 2026-05-01 13:31 | 30.14966 | -81.53890 | 36958 ft | 513 kts | 165° |
| 2026-05-01 13:32 | 29.98580 | -81.46059 | 36973 ft | 510 kts | 165° |
| 2026-05-01 13:33 | 29.82163 | -81.38239 | 36951 ft | 510 kts | 164° |
| 2026-05-01 13:34 | 29.69074 | -81.32026 | 36962 ft | 508 kts | 164° |
| 2026-05-01 13:35 | 29.59297 | -81.27396 | 36954 ft | 508 kts | 164° |
| 2026-05-01 13:36 | 29.49479 | -81.22760 | 36945 ft | 507 kts | 163° |
| 2026-05-01 13:36 | 29.39702 | -81.18141 | 36960 ft | 506 kts | 163° |
| 2026-05-01 13:37 | 29.33229 | -81.15090 | 36980 ft | 506 kts | 163° |
| 2026-05-01 13:37 | 29.26669 | -81.12051 | 36981 ft | 505 kts | 165° |
| 2026-05-01 13:38 | 29.16878 | -81.07760 | 36976 ft | 504 kts | 165° |
| 2026-05-01 13:39 | 29.10326 | -81.04878 | 36974 ft | 504 kts | 165° |
| 2026-05-01 13:39 | 29.03783 | -81.01995 | 36975 ft | 504 kts | 165° |
| 2026-05-01 13:40 | 28.97270 | -80.99128 | 36975 ft | 504 kts | 165° |
| 2026-05-01 13:40 | 28.90727 | -80.96256 | 36963 ft | 503 kts | 164° |
| 2026-05-01 13:41 | 28.84190 | -80.93384 | 36965 ft | 504 kts | 164° |
| 2026-05-01 13:41 | 28.77644 | -80.90510 | 36944 ft | 504 kts | 164° |
| 2026-05-01 13:42 | 28.71100 | -80.87647 | 36953 ft | 504 kts | 164° |
| 2026-05-01 13:42 | 28.64490 | -80.84995 | 36971 ft | 502 kts | 166° |
| 2026-05-01 13:43 | 28.57854 | -80.82464 | 36990 ft | 503 kts | 166° |
| 2026-05-01 13:43 | 28.51233 | -80.79929 | 36993 ft | 503 kts | 166° |
| 2026-05-01 13:44 | 28.44603 | -80.77392 | 36994 ft | 503 kts | 166° |
| 2026-05-01 13:44 | 28.37956 | -80.74851 | 36983 ft | 503 kts | 166° |
| 2026-05-01 13:45 | 28.33516 | -80.73157 | 36958 ft | 503 kts | 166° |